createdAt,value
2022-12-03T00:00:24.865Z,3.86
2022-12-03T00:02:51.435Z,3.98
2022-12-03T00:05:17.943Z,3.99
2022-12-03T00:07:44.703Z,4.00
2022-12-03T00:10:11.417Z,3.97
2022-12-03T00:12:38.059Z,3.98
2022-12-03T00:15:05.783Z,3.91
2022-12-03T00:17:32.303Z,3.91
2022-12-03T00:19:58.760Z,3.98
2022-12-03T00:22:25.212Z,3.92
2022-12-03T00:24:52.160Z,3.95
2022-12-03T00:27:18.795Z,3.96
2022-12-03T00:29:46.567Z,4.04
2022-12-03T00:32:13.940Z,3.96
2022-12-03T00:34:40.350Z,3.95
2022-12-03T00:37:07.772Z,4.04
2022-12-03T00:39:34.809Z,4.02
2022-12-03T00:42:01.247Z,4.05
2022-12-03T00:44:27.949Z,4.07
2022-12-03T00:46:54.803Z,4.14
2022-12-03T00:49:21.814Z,4.15
2022-12-03T00:51:48.729Z,4.19
2022-12-03T00:54:17.668Z,4.12
2022-12-03T00:56:44.152Z,4.07
2022-12-03T00:59:10.750Z,4.11
2022-12-03T01:01:37.758Z,4.15
2022-12-03T01:04:04.371Z,4.19
2022-12-03T01:06:30.813Z,4.20
2022-12-03T01:08:58.372Z,4.14
2022-12-03T01:11:41.185Z,4.12
2022-12-03T01:14:19.445Z,4.19
2022-12-03T01:16:46.392Z,4.22
2022-12-03T01:19:16.420Z,4.25
2022-12-03T01:21:43.496Z,4.27
2022-12-03T01:24:10.284Z,4.31
2022-12-03T01:26:36.869Z,4.27
2022-12-03T01:29:03.978Z,4.35
2022-12-03T01:31:49.289Z,4.39
2022-12-03T01:34:15.726Z,4.35
2022-12-03T01:36:42.068Z,4.37
2022-12-03T01:39:08.668Z,4.35
2022-12-03T01:41:35.607Z,4.32
2022-12-03T01:44:02.432Z,4.31
2022-12-03T01:46:35.079Z,4.33
2022-12-03T01:49:01.640Z,4.36
2022-12-03T01:51:29.295Z,4.26
2022-12-03T01:53:55.799Z,4.29
2022-12-03T01:56:22.372Z,4.31
2022-12-03T01:58:48.775Z,4.33
2022-12-03T02:01:16.650Z,4.37
2022-12-03T02:03:43.656Z,4.37
2022-12-03T02:06:18.069Z,4.39
2022-12-03T02:08:45.177Z,4.42
2022-12-03T02:11:17.735Z,4.40
2022-12-03T02:13:44.344Z,4.34
2022-12-03T02:16:10.991Z,4.33
2022-12-03T02:18:37.517Z,4.38
2022-12-03T02:21:19.033Z,4.26
2022-12-03T02:23:51.837Z,4.21
2022-12-03T02:26:18.343Z,4.24
2022-12-03T02:28:44.706Z,4.32
2022-12-03T02:31:11.524Z,4.36
2022-12-03T02:33:38.244Z,4.42
2022-12-03T02:36:04.792Z,4.40
2022-12-03T02:38:32.535Z,4.43
2022-12-03T02:41:00.590Z,4.45
2022-12-03T02:43:27.176Z,4.47
2022-12-03T02:45:54.946Z,4.43
2022-12-03T02:48:23.403Z,4.47
2022-12-03T02:50:57.400Z,4.41
2022-12-03T02:53:26.342Z,4.39
2022-12-03T02:55:54.383Z,4.32
2022-12-03T02:58:21.566Z,4.34
2022-12-03T03:00:49.435Z,4.38
2022-12-03T03:03:16.556Z,4.44
2022-12-03T03:05:43.175Z,4.48
2022-12-03T03:08:10.316Z,4.42
2022-12-03T03:10:37.702Z,4.46
2022-12-03T03:13:07.333Z,4.44
2022-12-03T03:15:35.683Z,4.46
2022-12-03T03:18:02.074Z,4.42
2022-12-03T03:20:28.508Z,4.38
2022-12-03T03:23:04.260Z,4.39
2022-12-03T03:25:30.629Z,4.47
2022-12-03T03:27:57.051Z,4.44
2022-12-03T03:30:23.424Z,4.48
2022-12-03T03:32:50.013Z,4.47
2022-12-03T03:35:17.908Z,4.47
2022-12-03T03:37:44.377Z,4.47
2022-12-03T03:40:11.113Z,4.44
2022-12-03T03:42:37.809Z,4.45
2022-12-03T03:45:06.204Z,4.43
2022-12-03T03:47:32.657Z,4.45
2022-12-03T03:49:59.161Z,4.49
2022-12-03T03:52:25.975Z,4.41
2022-12-03T03:54:52.670Z,4.43
2022-12-03T03:57:19.337Z,4.38
2022-12-03T03:59:46.077Z,4.38
2022-12-03T04:02:22.571Z,4.41
2022-12-03T04:04:49.386Z,4.44
2022-12-03T04:07:16.196Z,4.42
2022-12-03T04:09:42.528Z,4.36
2022-12-03T04:12:27.591Z,4.37
2022-12-03T04:14:54.197Z,4.43
2022-12-03T04:17:20.709Z,4.39
2022-12-03T04:19:47.067Z,4.45
2022-12-03T04:22:32.168Z,4.40
2022-12-03T04:25:17.370Z,4.43
2022-12-03T04:28:02.924Z,4.45
2022-12-03T04:30:29.642Z,4.48
2022-12-03T04:33:15.065Z,4.49
2022-12-03T04:35:44.620Z,4.48
2022-12-03T04:38:11.460Z,4.49
2022-12-03T04:40:57.236Z,4.50
2022-12-03T04:43:23.705Z,4.52
2022-12-03T04:45:50.129Z,4.56
2022-12-03T04:48:16.908Z,4.55
2022-12-03T04:50:43.271Z,4.47
2022-12-03T04:53:09.675Z,4.45
2022-12-03T04:55:36.087Z,4.46
2022-12-03T04:58:02.545Z,4.38
2022-12-03T05:00:28.993Z,4.38
2022-12-03T05:02:55.408Z,4.36
2022-12-03T05:05:21.865Z,4.37
2022-12-03T05:07:48.312Z,4.38
2022-12-03T05:10:14.776Z,4.39
2022-12-03T05:12:41.131Z,4.39
2022-12-03T05:15:07.697Z,4.38
2022-12-03T05:17:34.043Z,4.40
2022-12-03T05:20:19.208Z,4.34
2022-12-03T05:22:45.620Z,4.34
2022-12-03T05:25:11.932Z,4.32
2022-12-03T05:27:38.398Z,4.35
2022-12-03T05:30:05.203Z,4.27
2022-12-03T05:32:31.544Z,4.01
2022-12-03T05:34:58.020Z,4.20
2022-12-03T05:37:24.437Z,4.22
2022-12-03T05:39:50.862Z,4.28
2022-12-03T05:42:35.879Z,4.35
2022-12-03T05:45:02.268Z,4.33
2022-12-03T05:47:28.666Z,4.35
2022-12-03T05:49:55.024Z,4.35
2022-12-03T05:52:21.383Z,4.35
2022-12-03T05:54:48.353Z,4.32
2022-12-03T05:57:14.697Z,4.29
2022-12-03T05:59:41.037Z,4.20
2022-12-03T06:02:07.454Z,4.28
2022-12-03T06:04:33.898Z,4.27
2022-12-03T06:07:00.233Z,4.28
2022-12-03T06:09:26.624Z,4.30
2022-12-03T06:11:54.156Z,4.24
2022-12-03T06:14:20.762Z,4.26
2022-12-03T06:16:47.224Z,4.30
2022-12-03T06:19:13.644Z,4.34
2022-12-03T06:21:39.967Z,4.21
2022-12-03T06:24:06.385Z,4.24
2022-12-03T06:26:32.838Z,4.28
2022-12-03T06:28:59.164Z,4.29
2022-12-03T06:31:25.628Z,4.25
2022-12-03T06:33:52.000Z,4.22
2022-12-03T06:36:22.823Z,4.16
2022-12-03T06:38:49.537Z,4.14
2022-12-03T06:41:15.876Z,4.20
2022-12-03T06:43:42.308Z,4.17
2022-12-03T06:46:08.847Z,4.17
2022-12-03T06:48:35.366Z,4.12
2022-12-03T06:51:01.842Z,4.14
2022-12-03T06:53:28.438Z,4.20
2022-12-03T06:55:54.928Z,4.27
2022-12-03T06:58:21.417Z,4.29
2022-12-03T07:00:50.806Z,4.28
2022-12-03T07:03:20.111Z,4.35
2022-12-03T07:05:50.913Z,4.38
2022-12-03T07:08:17.752Z,4.30
2022-12-03T07:10:49.548Z,4.23
2022-12-03T07:13:16.020Z,4.29
2022-12-03T07:15:45.523Z,4.33
2022-12-03T07:18:11.994Z,4.33
2022-12-03T07:20:38.418Z,4.35
2022-12-03T07:23:04.860Z,4.30
2022-12-03T07:25:31.289Z,4.34
2022-12-03T07:27:57.758Z,4.32
2022-12-03T07:30:38.624Z,4.32
2022-12-03T07:33:37.162Z,4.26
2022-12-03T07:47:40.114Z,4.46
2022-12-03T07:50:18.070Z,4.44
2022-12-03T07:52:56.040Z,4.51
2022-12-03T07:55:28.273Z,4.48
2022-12-03T07:58:29.129Z,4.30
2022-12-03T08:00:56.235Z,4.32
2022-12-03T08:10:58.071Z,4.26
2022-12-03T08:13:36.995Z,4.16
2022-12-03T08:16:12.590Z,4.19
2022-12-03T08:18:59.657Z,4.36
2022-12-03T11:51:59.023Z,5.11
2022-12-03T11:54:25.963Z,5.19
2022-12-03T11:56:53.120Z,5.21
2022-12-03T11:59:20.071Z,5.29
2022-12-03T12:01:47.064Z,5.31
2022-12-03T12:04:27.760Z,5.12
2022-12-03T12:06:54.252Z,5.13
2022-12-03T12:09:39.992Z,4.99
2022-12-03T12:12:25.064Z,4.96
2022-12-03T12:14:54.544Z,5.04
2022-12-03T12:17:40.039Z,4.99
2022-12-03T12:23:25.828Z,4.71
2022-12-03T12:25:54.467Z,4.78
2022-12-03T12:28:21.124Z,4.85
2022-12-03T12:30:47.515Z,4.99
2022-12-03T12:33:22.947Z,5.02
2022-12-03T12:35:49.582Z,5.18
2022-12-03T12:38:26.460Z,5.24
2022-12-03T12:40:52.883Z,5.21
2022-12-03T12:43:25.129Z,5.32
2022-12-03T12:45:55.709Z,5.34
2022-12-03T12:48:26.758Z,5.49
2022-12-03T12:51:13.507Z,5.50
2022-12-03T12:53:42.666Z,5.49
2022-12-03T12:56:09.075Z,5.41
2022-12-03T13:02:41.687Z,5.29
2022-12-03T13:05:12.793Z,5.27
2022-12-03T13:07:40.337Z,5.22
2022-12-03T13:10:24.772Z,5.23
2022-12-03T13:12:51.915Z,5.19
2022-12-03T13:15:38.660Z,5.20
2022-12-03T13:18:30.853Z,5.09
2022-12-03T13:21:22.135Z,5.16
2022-12-03T13:23:56.173Z,5.01
2022-12-03T13:30:04.186Z,5.01
2022-12-03T13:36:01.837Z,5.12
2022-12-03T13:38:30.943Z,5.17
2022-12-03T13:41:02.092Z,5.17
2022-12-03T13:43:30.307Z,5.36
2022-12-03T13:45:56.957Z,5.19
2022-12-03T13:48:29.093Z,5.17
2022-12-03T13:50:55.491Z,5.12
2022-12-03T13:53:24.830Z,5.12
2022-12-03T13:56:17.372Z,5.11
2022-12-03T13:58:43.897Z,5.13
2022-12-03T14:01:10.384Z,5.16
2022-12-03T14:03:36.954Z,5.22
2022-12-03T14:06:03.421Z,5.26
2022-12-03T14:08:30.980Z,5.30
2022-12-03T14:11:00.529Z,5.35
2022-12-03T14:13:27.478Z,5.28
2022-12-03T14:15:54.235Z,5.27
2022-12-03T14:18:21.727Z,5.09
2022-12-03T14:20:48.357Z,5.08
2022-12-03T14:23:15.289Z,5.11
2022-12-03T14:25:43.829Z,5.11
2022-12-03T14:28:10.583Z,5.17
2022-12-03T14:31:24.240Z,5.21
2022-12-03T14:33:50.746Z,5.23
2022-12-03T14:36:17.220Z,5.25
2022-12-03T14:38:43.737Z,5.26
2022-12-03T14:41:30.101Z,5.25
2022-12-03T14:43:56.576Z,5.26
2022-12-03T14:46:23.056Z,5.20
2022-12-03T14:48:49.760Z,5.20
2022-12-03T14:51:16.233Z,5.19
2022-12-03T14:53:42.605Z,5.25
2022-12-03T14:56:09.167Z,5.14
2022-12-03T14:58:35.745Z,5.25
2022-12-03T15:01:02.273Z,5.21
2022-12-03T15:03:29.008Z,5.09
2022-12-03T15:05:55.508Z,5.08
2022-12-03T15:08:22.118Z,5.04
2022-12-03T15:10:48.743Z,5.09
2022-12-03T15:13:16.171Z,5.05
2022-12-03T15:15:42.724Z,4.99
2022-12-03T15:18:09.262Z,4.94
2022-12-03T15:20:35.980Z,4.94
2022-12-03T15:23:02.993Z,4.97
2022-12-03T15:25:29.754Z,4.96
2022-12-03T15:27:59.110Z,4.94
2022-12-03T15:30:25.696Z,4.92
2022-12-03T15:32:52.137Z,4.94
2022-12-03T15:35:18.736Z,4.96
2022-12-03T15:37:46.095Z,4.92
2022-12-03T15:40:12.801Z,4.96
2022-12-03T15:42:39.524Z,4.90
2022-12-03T15:45:09.529Z,4.95
2022-12-03T15:47:38.525Z,5.04
2022-12-03T15:50:05.454Z,5.06
2022-12-03T15:52:31.963Z,5.06
2022-12-03T15:54:58.458Z,5.00
2022-12-03T15:57:25.143Z,5.00
2022-12-03T15:59:52.079Z,5.00
2022-12-03T16:02:19.081Z,5.00
2022-12-03T16:04:45.675Z,5.08
2022-12-03T16:07:12.450Z,5.05
2022-12-03T16:09:39.153Z,4.99
2022-12-03T16:12:05.868Z,5.00
2022-12-03T16:14:32.495Z,4.98
2022-12-03T16:17:00.146Z,5.05
2022-12-03T16:19:27.005Z,4.99
2022-12-03T16:21:53.617Z,4.99
2022-12-03T16:24:20.331Z,4.97
2022-12-03T16:26:47.000Z,4.96
2022-12-03T16:29:13.538Z,5.03
2022-12-03T16:31:40.112Z,4.98
2022-12-03T16:34:06.833Z,4.99
2022-12-03T16:36:33.312Z,4.99
2022-12-03T16:39:02.301Z,4.98
2022-12-03T16:41:28.966Z,5.00
2022-12-03T16:43:55.545Z,5.03
2022-12-03T16:46:26.266Z,5.02
2022-12-03T16:48:55.321Z,4.94
2022-12-03T16:51:22.244Z,4.96
2022-12-03T16:53:48.880Z,4.92
2022-12-03T16:56:15.553Z,4.92
2022-12-03T16:58:42.134Z,4.88
2022-12-03T17:01:09.110Z,4.94
2022-12-03T17:03:35.879Z,4.95
2022-12-03T17:06:02.724Z,4.98
2022-12-03T17:08:29.565Z,5.00
2022-12-03T17:10:56.312Z,4.91
2022-12-03T17:13:25.853Z,4.88
2022-12-03T17:15:52.488Z,4.94
2022-12-03T17:18:19.068Z,5.03
2022-12-03T17:20:45.611Z,4.99
2022-12-03T17:23:12.193Z,4.92
2022-12-03T17:25:38.700Z,4.91
2022-12-03T17:28:05.491Z,4.91
2022-12-03T17:30:32.112Z,4.86
2022-12-03T17:32:58.650Z,4.92
2022-12-03T17:35:25.335Z,4.80
2022-12-03T17:37:51.812Z,4.76
2022-12-03T17:40:18.334Z,4.80
2022-12-03T17:42:45.372Z,4.77
2022-12-03T17:45:12.596Z,4.76
2022-12-03T17:47:39.140Z,4.77
2022-12-03T17:50:06.080Z,4.81
2022-12-03T17:52:32.827Z,4.81
2022-12-03T17:55:24.162Z,4.83
2022-12-03T17:57:46.115Z,4.91
2022-12-03T18:00:12.845Z,4.86
2022-12-03T18:02:39.390Z,4.84
2022-12-03T18:05:06.426Z,4.83
2022-12-03T18:07:33.022Z,4.88
2022-12-03T18:09:59.663Z,4.94
2022-12-03T18:12:27.433Z,4.91
2022-12-03T18:14:53.995Z,4.88
2022-12-03T18:17:20.629Z,4.80
2022-12-03T18:19:47.238Z,4.82
2022-12-03T18:22:14.548Z,4.86
2022-12-03T18:24:41.153Z,4.84
2022-12-03T18:27:07.967Z,4.78
2022-12-03T18:29:34.471Z,4.77
2022-12-03T18:32:01.236Z,4.74
2022-12-03T18:34:27.986Z,4.65
2022-12-03T18:36:54.569Z,4.70
2022-12-03T18:39:26.335Z,4.70
2022-12-03T18:41:53.627Z,4.63
2022-12-03T18:44:20.608Z,4.63
2022-12-03T18:46:55.040Z,4.62
2022-12-03T18:49:22.316Z,4.72
2022-12-03T18:51:52.124Z,4.69
2022-12-03T18:54:22.628Z,4.72
2022-12-03T18:56:49.402Z,4.69
2022-12-03T18:59:16.016Z,4.72
2022-12-03T19:01:42.682Z,4.68
2022-12-03T19:04:09.831Z,4.75
2022-12-03T19:06:36.482Z,4.73
2022-12-03T19:09:06.102Z,4.78
2022-12-03T19:11:34.126Z,4.76
2022-12-03T19:14:00.793Z,4.71
2022-12-03T19:16:27.391Z,4.66
2022-12-03T19:18:54.835Z,4.65
2022-12-03T19:21:21.622Z,4.64
2022-12-03T19:24:22.202Z,4.65
2022-12-03T19:26:35.186Z,4.67
2022-12-03T19:29:01.872Z,4.64
2022-12-03T19:31:30.703Z,4.67
2022-12-03T19:33:57.318Z,4.65
2022-12-03T19:36:28.152Z,4.70
2022-12-03T19:38:58.125Z,4.72
2022-12-03T19:41:27.427Z,4.54
2022-12-03T19:43:55.161Z,4.58
2022-12-03T19:46:22.757Z,4.68
2022-12-03T19:48:49.376Z,4.70
2022-12-03T19:51:34.049Z,4.70
2022-12-03T19:54:01.310Z,4.68
2022-12-03T19:56:30.512Z,4.73
2022-12-03T19:58:59.566Z,4.62
2022-12-03T20:02:31.403Z,4.60
2022-12-03T20:04:58.148Z,4.68
2022-12-03T20:07:24.600Z,4.71
2022-12-03T20:09:51.765Z,4.59
2022-12-03T20:12:18.466Z,4.60
2022-12-03T20:14:45.399Z,4.55
2022-12-03T20:17:12.069Z,4.61
2022-12-03T20:19:38.783Z,4.66
2022-12-03T20:22:05.343Z,4.53
2022-12-03T20:24:31.860Z,4.51
2022-12-03T20:26:58.418Z,4.53
2022-12-03T20:29:24.974Z,4.60
2022-12-03T20:31:51.686Z,4.64
2022-12-03T20:34:18.286Z,4.61
2022-12-03T20:36:45.523Z,4.54
2022-12-03T20:39:12.106Z,4.59
2022-12-03T20:41:38.657Z,4.64
2022-12-03T20:44:07.305Z,4.62
2022-12-03T20:46:36.136Z,4.58
2022-12-03T20:49:02.968Z,4.56
2022-12-03T20:51:30.341Z,4.58
2022-12-03T20:53:57.392Z,4.52
2022-12-03T20:56:26.211Z,4.49
2022-12-03T20:58:53.704Z,4.48
2022-12-03T21:01:21.502Z,4.52
2022-12-03T21:03:48.620Z,4.41
2022-12-03T23:18:25.621Z,4.30
2022-12-03T23:20:53.541Z,4.43
2022-12-03T23:23:20.531Z,4.46
2022-12-03T23:25:57.522Z,4.47
2022-12-03T23:28:24.493Z,4.42
2022-12-03T23:30:51.981Z,4.44
2022-12-03T23:33:18.512Z,4.36
2022-12-03T23:35:45.073Z,4.45
2022-12-03T23:38:11.545Z,4.43
2022-12-03T23:40:37.939Z,4.50
2022-12-03T23:43:04.450Z,4.49
2022-12-03T23:45:32.297Z,4.41
2022-12-03T23:47:58.714Z,4.35
2022-12-03T23:50:25.352Z,4.34
2022-12-03T23:52:52.697Z,4.32
2022-12-03T23:55:19.470Z,4.38
2022-12-03T23:57:45.972Z,4.43
